Time;durP1;ratioP1;P1;durP2;ratioP2;P2;SDS_P1;SDS_P2;PMS_P1;PMS_P2;Temp;Humidity;BMP_temperature;BMP_pressure;BME280_temperature;BME280_humidity;BME280_pressure;Samples;Min_cycle;Max_cycle;Signal;HPM_P1;HPM_P2
2021/05/16 00:00:13;;;;;;;1.40;0.98;;;10.40;99.90;;;;;;1877144;76;21214;-71
2021/05/16 00:02:39;;;;;;;0.85;0.60;;;10.40;99.90;;;;;;1877174;76;21070;-71
2021/05/16 00:05:05;;;;;;;7.25;0.75;;;10.40;99.90;;;;;;1877150;76;21008;-71
2021/05/16 00:07:31;;;;;;;3.60;0.60;;;10.40;99.90;;;;;;1877302;76;21153;-72
2021/05/16 00:09:57;;;;;;;0.30;0.30;;;10.50;99.90;;;;;;1877278;76;21166;-71
2021/05/16 00:12:23;;;;;;;5.00;0.57;;;10.50;99.90;;;;;;1877115;76;21164;-71
2021/05/16 00:14:50;;;;;;;0.30;0.30;;;10.50;99.90;;;;;;1877233;76;21212;-71
2021/05/16 00:17:16;;;;;;;0.80;0.50;;;10.50;99.90;;;;;;1877279;76;21090;-71
2021/05/16 00:19:42;;;;;;;2.02;0.78;;;10.50;99.90;;;;;;1877277;76;21209;-71
2021/05/16 00:22:08;;;;;;;1.20;0.50;;;10.50;99.90;;;;;;1877204;76;21536;-71
2021/05/16 00:24:34;;;;;;;1.55;0.65;;;10.50;99.90;;;;;;1877326;76;21485;-71
2021/05/16 00:27:00;;;;;;;2.22;0.60;;;10.60;99.90;;;;;;1877400;76;21486;-72
2021/05/16 00:29:26;;;;;;;1.50;0.57;;;10.60;99.90;;;;;;1877118;76;21565;-72
2021/05/16 00:31:52;;;;;;;2.37;0.40;;;10.60;99.90;;;;;;1877238;76;21568;-71
2021/05/16 00:34:19;;;;;;;2.20;0.70;;;10.60;99.90;;;;;;1877065;76;21070;-71
2021/05/16 00:36:45;;;;;;;5.50;0.50;;;10.60;99.90;;;;;;1877354;76;21082;-71
2021/05/16 00:39:11;;;;;;;2.05;0.85;;;10.60;99.90;;;;;;1877126;76;21157;-71
2021/05/16 00:41:37;;;;;;;2.12;0.80;;;10.70;99.90;;;;;;1877290;76;21079;-71
2021/05/16 00:44:03;;;;;;;2.05;1.00;;;10.80;99.90;;;;;;1877171;76;21070;-71
2021/05/16 00:46:29;;;;;;;0.90;0.60;;;10.80;99.90;;;;;;1877306;76;21152;-71
2021/05/16 00:48:55;;;;;;;1.05;0.57;;;10.70;99.90;;;;;;1877159;76;21112;-71
2021/05/16 00:51:21;;;;;;;0.68;0.55;;;10.80;99.90;;;;;;1877188;76;21086;-71
2021/05/16 00:53:47;;;;;;;1.22;0.75;;;10.80;99.90;;;;;;1877332;76;21071;-71
2021/05/16 00:56:14;;;;;;;1.70;0.70;;;10.80;99.90;;;;;;1877233;76;21079;-71
2021/05/16 00:58:40;;;;;;;1.25;0.30;;;10.90;99.90;;;;;;1877261;76;21114;-71
2021/05/16 01:01:09;;;;;;;2.25;0.50;;;10.90;99.90;;;;;;1877178;76;21203;-71
2021/05/16 01:03:34;;;;;;;3.60;0.40;;;10.90;99.90;;;;;;1877031;76;21112;-71
2021/05/16 01:06:00;;;;;;;2.62;0.40;;;10.80;99.90;;;;;;1877158;76;21158;-71
2021/05/16 01:08:26;;;;;;;2.72;0.60;;;10.90;99.90;;;;;;1877228;76;21079;-71
2021/05/16 01:10:52;;;;;;;1.07;0.35;;;10.90;99.90;;;;;;1877291;76;21048;-71
2021/05/16 01:13:18;;;;;;;0.30;0.30;;;10.80;99.90;;;;;;1877250;76;21447;-71
2021/05/16 01:15:44;;;;;;;3.40;0.65;;;10.90;99.90;;;;;;1877149;76;21086;-71
2021/05/16 01:18:10;;;;;;;3.20;0.47;;;10.90;99.90;;;;;;1877111;76;21197;-71
2021/05/16 01:20:38;;;;;;;1.57;0.60;;;10.80;99.90;;;;;;1877106;76;21054;-70
2021/05/16 01:23:04;;;;;;;0.98;0.42;;;10.80;99.90;;;;;;1877149;76;21204;-71
2021/05/16 01:25:30;;;;;;;1.52;0.57;;;10.80;99.90;;;;;;1877224;76;21130;-71
2021/05/16 01:27:56;;;;;;;1.75;0.62;;;10.80;99.90;;;;;;1877225;76;21156;-71
2021/05/16 01:30:22;;;;;;;1.22;0.30;;;10.70;99.90;;;;;;1877282;76;21545;-71
2021/05/16 01:32:48;;;;;;;1.20;0.55;;;10.70;99.90;;;;;;1877217;76;21503;-71
2021/05/16 01:35:15;;;;;;;1.12;0.55;;;10.80;99.90;;;;;;1877133;76;21548;-71
2021/05/16 01:37:41;;;;;;;2.40;0.62;;;10.80;99.90;;;;;;1877134;76;21048;-71
2021/05/16 01:40:07;;;;;;;1.15;0.45;;;10.90;99.90;;;;;;1877209;76;21075;-71
2021/05/16 01:42:33;;;;;;;3.60;0.50;;;10.80;99.90;;;;;;1877147;76;21074;-71
2021/05/16 01:45:04;;;;;;;1.55;0.60;;;10.80;99.90;;;;;;1877188;76;21074;-71
2021/05/16 01:47:30;;;;;;;3.20;0.53;;;10.80;99.90;;;;;;1876881;76;21102;-72
2021/05/16 01:49:57;;;;;;;4.33;0.42;;;10.80;99.90;;;;;;1877228;76;21156;-71
2021/05/16 01:52:23;;;;;;;1.27;0.78;;;10.80;99.90;;;;;;1877227;76;21137;-72
2021/05/16 01:54:49;;;;;;;0.55;0.50;;;10.80;99.90;;;;;;1877301;76;21160;-71
2021/05/16 01:57:15;;;;;;;1.95;0.30;;;10.80;99.90;;;;;;1877274;76;21044;-71
2021/05/16 01:59:41;;;;;;;5.47;0.68;;;10.80;99.90;;;;;;1877429;76;21133;-72
2021/05/16 02:02:07;;;;;;;3.67;0.80;;;10.80;99.90;;;;;;1877130;76;21086;-71
2021/05/16 02:04:34;;;;;;;1.62;0.80;;;10.90;99.90;;;;;;1877374;76;21048;-71
2021/05/16 02:07:00;;;;;;;2.10;0.70;;;10.90;99.90;;;;;;1877121;76;21087;-71
2021/05/16 02:09:26;;;;;;;1.12;0.60;;;10.80;99.90;;;;;;1877389;76;21435;-71
2021/05/16 02:11:52;;;;;;;1.32;0.78;;;10.70;99.90;;;;;;1877397;76;21051;-71
2021/05/16 02:14:18;;;;;;;1.55;0.57;;;10.60;99.90;;;;;;1877212;76;21148;-71
2021/05/16 02:16:44;;;;;;;1.35;0.78;;;10.60;99.90;;;;;;1877237;76;21044;-71
2021/05/16 02:19:11;;;;;;;3.85;0.68;;;10.60;99.90;;;;;;1877317;76;21176;-71
2021/05/16 02:21:37;;;;;;;1.77;0.72;;;10.60;99.90;;;;;;1877332;76;21109;-71
2021/05/16 02:24:05;;;;;;;3.85;0.80;;;10.50;99.90;;;;;;1877138;76;21070;-71
2021/05/16 02:26:31;;;;;;;2.20;0.80;;;10.50;99.90;;;;;;1877372;76;21313;-70
2021/05/16 02:28:57;;;;;;;0.65;0.40;;;10.50;99.90;;;;;;1877326;76;21091;-71
2021/05/16 02:31:23;;;;;;;1.95;0.55;;;10.50;99.90;;;;;;1875640;76;21440;-70
2021/05/16 02:33:49;;;;;;;4.28;0.80;;;10.50;99.90;;;;;;1877260;76;21502;-71
2021/05/16 02:36:15;;;;;;;3.10;0.60;;;10.50;99.90;;;;;;1877185;76;21465;-73
2021/05/16 02:38:41;;;;;;;2.15;0.47;;;10.40;99.90;;;;;;1877327;76;21597;-70
2021/05/16 02:41:07;;;;;;;4.37;0.65;;;10.40;99.90;;;;;;1877979;76;21463;-72
2021/05/16 02:43:34;;;;;;;2.80;0.80;;;10.40;99.90;;;;;;1877157;76;21074;-70
2021/05/16 02:46:00;;;;;;;1.65;0.60;;;10.50;99.90;;;;;;1877261;76;21075;-71
2021/05/16 02:48:26;;;;;;;0.93;0.80;;;10.40;99.90;;;;;;1877184;76;21038;-70
2021/05/16 02:50:52;;;;;;;4.50;0.80;;;10.30;99.90;;;;;;1877216;76;21052;-71
2021/05/16 02:53:20;;;;;;;2.80;0.95;;;10.40;99.90;;;;;;1877079;76;21074;-70
2021/05/16 02:55:46;;;;;;;2.05;0.80;;;10.30;99.90;;;;;;1877176;76;21530;-70
2021/05/16 02:58:12;;;;;;;2.50;0.80;;;10.40;99.90;;;;;;1877142;76;21506;-70
2021/05/16 03:00:38;;;;;;;2.83;0.78;;;10.40;99.90;;;;;;1877359;76;21463;-70
2021/05/16 03:03:04;;;;;;;4.87;0.88;;;10.40;99.90;;;;;;1877247;76;21147;-70
2021/05/16 03:05:30;;;;;;;2.65;0.50;;;10.50;99.90;;;;;;1877200;76;21137;-71
2021/05/16 03:07:56;;;;;;;2.22;0.60;;;10.40;99.90;;;;;;1877435;76;21047;-71
2021/05/16 03:10:23;;;;;;;2.50;0.68;;;10.50;99.90;;;;;;1877272;76;21149;-69
2021/05/16 03:12:49;;;;;;;2.22;0.82;;;10.50;99.90;;;;;;1877278;76;21067;-71
2021/05/16 03:15:15;;;;;;;2.05;0.78;;;10.30;99.90;;;;;;1877334;76;21058;-71
2021/05/16 03:17:41;;;;;;;0.40;0.40;;;10.40;99.90;;;;;;1877394;76;21136;-71
2021/05/16 03:20:07;;;;;;;2.47;0.60;;;10.40;99.90;;;;;;1877375;76;21043;-71
2021/05/16 03:22:33;;;;;;;3.98;0.65;;;10.50;99.90;;;;;;1877786;76;21495;-71
2021/05/16 03:24:59;;;;;;;1.77;0.70;;;10.40;99.90;;;;;;1877578;76;21565;-71
2021/05/16 03:27:26;;;;;;;1.22;0.70;;;10.50;99.90;;;;;;1877791;76;21083;-72
2021/05/16 03:29:52;;;;;;;1.52;0.40;;;10.50;99.90;;;;;;1877797;76;21145;-71
2021/05/16 03:32:19;;;;;;;1.12;0.50;;;10.50;99.90;;;;;;1877896;76;21094;-71
2021/05/16 03:34:45;;;;;;;1.55;0.90;;;10.40;99.90;;;;;;1877645;76;21470;-71
2021/05/16 03:37:11;;;;;;;1.55;0.88;;;10.40;99.90;;;;;;1877809;76;21223;-71
2021/05/16 03:39:38;;;;;;;2.33;0.60;;;10.30;99.90;;;;;;1877613;76;21165;-72
2021/05/16 03:42:04;;;;;;;1.82;0.80;;;10.20;99.90;;;;;;1877767;76;21082;-71
2021/05/16 03:44:30;;;;;;;2.62;0.75;;;10.20;99.90;;;;;;1877643;76;21122;-71
2021/05/16 03:46:56;;;;;;;1.52;0.80;;;10.30;99.90;;;;;;1877803;76;21126;-71
2021/05/16 03:49:22;;;;;;;0.93;0.70;;;10.30;99.90;;;;;;1877719;76;21067;-71
2021/05/16 03:51:48;;;;;;;1.82;0.80;;;10.20;99.90;;;;;;1877817;76;21111;-71
2021/05/16 03:54:15;;;;;;;1.05;0.50;;;10.20;99.90;;;;;;1877596;76;21086;-71
2021/05/16 03:56:41;;;;;;;6.25;1.12;;;10.20;99.90;;;;;;1877713;76;21119;-71
2021/05/16 03:59:07;;;;;;;1.32;0.55;;;10.20;99.90;;;;;;1877669;76;21103;-71
2021/05/16 04:01:34;;;;;;;2.80;0.55;;;10.20;99.90;;;;;;1877763;76;21197;-71
2021/05/16 04:04:00;;;;;;;3.02;0.88;;;10.20;99.90;;;;;;1877839;76;21079;-71
2021/05/16 04:06:26;;;;;;;3.77;0.60;;;10.20;99.90;;;;;;1877791;76;21099;-71
2021/05/16 04:08:52;;;;;;;1.52;0.68;;;10.20;99.90;;;;;;1877786;76;21083;-71
2021/05/16 04:11:18;;;;;;;2.60;0.90;;;10.20;99.90;;;;;;1877678;76;21118;-71
2021/05/16 04:13:44;;;;;;;4.87;1.60;;;10.20;99.90;;;;;;1877670;76;21215;-72
2021/05/16 04:16:10;;;;;;;5.22;0.78;;;10.20;99.90;;;;;;1877697;76;21047;-71
2021/05/16 04:18:38;;;;;;;1.95;0.65;;;10.20;99.90;;;;;;1877703;76;21047;-71
2021/05/16 04:21:04;;;;;;;1.55;0.88;;;10.20;99.90;;;;;;1877815;76;21082;-71
2021/05/16 04:23:30;;;;;;;0.85;0.70;;;10.20;99.90;;;;;;1877774;76;21067;-71
2021/05/16 04:25:56;;;;;;;1.60;0.75;;;10.30;99.90;;;;;;1877666;76;21087;-72
2021/05/16 04:28:23;;;;;;;1.22;0.60;;;10.30;99.90;;;;;;1877667;76;21196;-73
2021/05/16 04:30:49;;;;;;;1.37;0.70;;;10.30;99.90;;;;;;1877792;76;21185;-72
2021/05/16 04:33:15;;;;;;;3.75;0.80;;;10.40;99.90;;;;;;1877728;76;21491;-72
2021/05/16 04:35:41;;;;;;;0.40;0.40;;;10.50;99.90;;;;;;1877674;76;21164;-71
2021/05/16 04:38:07;;;;;;;8.35;0.75;;;10.50;99.90;;;;;;1877697;76;21071;-72
2021/05/16 04:40:33;;;;;;;1.80;0.55;;;10.50;99.90;;;;;;1877676;76;21067;-71
2021/05/16 04:42:59;;;;;;;2.25;0.88;;;10.50;99.90;;;;;;1877771;76;21165;-72
2021/05/16 04:45:26;;;;;;;4.40;0.78;;;10.50;99.90;;;;;;1877798;76;21103;-72
2021/05/16 04:47:52;;;;;;;4.85;1.00;;;10.40;99.90;;;;;;1853436;76;21071;-71
2021/05/16 04:50:18;;;;;;;8.08;1.02;;;10.50;99.90;;;;;;1877724;76;21023;-71
2021/05/16 04:52:45;;;;;;;1.87;0.78;;;10.50;99.90;;;;;;1877626;76;21377;-72
2021/05/16 04:55:11;;;;;;;1.35;0.60;;;10.60;99.90;;;;;;1877603;76;21087;-71
2021/05/16 04:57:38;;;;;;;0.93;0.40;;;10.60;99.90;;;;;;1877865;76;21071;-72
2021/05/16 05:00:04;;;;;;;2.65;0.65;;;10.70;99.90;;;;;;1876427;76;21487;-72
2021/05/16 05:02:30;;;;;;;0.33;0.28;;;10.80;99.90;;;;;;1877828;76;21499;-72
2021/05/16 05:04:56;;;;;;;1.52;0.53;;;10.80;99.90;;;;;;1877676;76;21547;-72
2021/05/16 05:07:22;;;;;;;0.75;0.28;;;10.90;99.90;;;;;;1877646;76;21173;-71
2021/05/16 05:09:48;;;;;;;1.80;0.42;;;10.90;99.90;;;;;;1877749;76;21082;-72
2021/05/16 05:12:14;;;;;;;1.50;0.53;;;11.00;99.90;;;;;;1877638;76;21092;-71
2021/05/16 05:14:41;;;;;;;3.37;0.20;;;11.10;99.90;;;;;;1877711;76;21212;-72
2021/05/16 05:17:07;;;;;;;0.95;0.30;;;11.10;99.90;;;;;;1877791;76;21104;-72
2021/05/16 05:19:33;;;;;;;2.22;0.50;;;11.10;99.90;;;;;;1877696;76;21075;-72
2021/05/16 05:21:59;;;;;;;1.47;0.50;;;11.10;99.90;;;;;;1868761;76;21090;-72
2021/05/16 05:24:25;;;;;;;0.35;0.15;;;11.20;99.90;;;;;;1877649;76;21117;-72
2021/05/16 05:26:51;;;;;;;0.25;0.20;;;11.30;99.90;;;;;;1877618;76;21083;-72
2021/05/16 05:29:17;;;;;;;0.55;0.30;;;11.20;99.90;;;;;;1877672;76;21075;-72
2021/05/16 05:31:45;;;;;;;0.70;0.40;;;11.20;99.90;;;;;;1877629;76;21075;-72
2021/05/16 05:34:11;;;;;;;3.45;0.40;;;11.30;99.90;;;;;;1877699;76;21208;-72
2021/05/16 05:36:37;;;;;;;1.72;0.42;;;11.20;99.90;;;;;;1877716;76;21201;-72
2021/05/16 05:39:03;;;;;;;2.17;0.30;;;11.30;99.90;;;;;;1877148;76;21150;-71
2021/05/16 05:41:29;;;;;;;1.07;0.28;;;11.40;99.90;;;;;;1877719;76;21578;-72
2021/05/16 05:43:55;;;;;;;0.78;0.50;;;11.40;99.90;;;;;;1877739;76;21561;-72
2021/05/16 05:46:21;;;;;;;0.98;0.45;;;11.50;99.90;;;;;;1887545;76;21549;-71
2021/05/16 05:48:48;;;;;;;3.92;0.37;;;11.20;99.90;;;;;;1886273;76;21509;-71
2021/05/16 05:51:14;;;;;;;2.35;0.62;;;11.10;99.90;;;;;;1886173;76;21583;-72
2021/05/16 05:53:43;;;;;;;3.15;0.60;;;11.10;99.90;;;;;;1886204;76;21078;-72
2021/05/16 05:56:10;;;;;;;1.35;0.40;;;11.10;99.90;;;;;;1886221;76;21459;-72
2021/05/16 05:58:36;;;;;;;0.82;0.33;;;11.10;99.90;;;;;;1886294;76;21059;-72
2021/05/16 06:01:02;;;;;;;1.22;0.30;;;11.20;99.90;;;;;;1886149;76;21520;-72
2021/05/16 06:03:28;;;;;;;1.00;0.40;;;11.30;99.90;;;;;;1886376;76;21547;-72
2021/05/16 06:05:54;;;;;;;0.60;0.60;;;11.40;99.90;;;;;;1886214;76;21583;-72
2021/05/16 06:08:21;;;;;;;1.10;0.35;;;11.30;99.90;;;;;;1886246;76;21757;-73
2021/05/16 06:10:47;;;;;;;1.75;0.30;;;11.30;99.90;;;;;;1886118;76;21519;-72
2021/05/16 06:13:13;;;;;;;0.85;0.50;;;11.50;99.90;;;;;;1886309;76;21066;-71
2021/05/16 06:15:39;;;;;;;1.30;0.78;;;11.60;99.90;;;;;;1886258;76;21180;-71
2021/05/16 06:18:06;;;;;;;0.72;0.57;;;11.70;99.90;;;;;;1886286;76;21066;-71
2021/05/16 06:20:32;;;;;;;2.85;0.45;;;12.00;99.90;;;;;;1886124;76;21090;-72
2021/05/16 06:23:00;;;;;;;1.22;0.30;;;12.30;99.90;;;;;;1886291;76;21083;-71
2021/05/16 06:25:27;;;;;;;0.57;0.28;;;12.40;99.90;;;;;;1886082;76;21082;-71
2021/05/16 06:27:56;;;;;;;0.70;0.30;;;12.60;99.90;;;;;;1886087;76;21147;-70
2021/05/16 06:30:21;;;;;;;0.40;0.20;;;12.60;99.90;;;;;;1886146;76;21240;-71
2021/05/16 06:32:47;;;;;;;0.20;0.20;;;12.60;99.90;;;;;;1886217;76;21156;-71
2021/05/16 06:35:14;;;;;;;1.00;0.30;;;12.60;99.90;;;;;;1886422;76;21051;-71
2021/05/16 06:37:40;;;;;;;5.33;0.35;;;12.70;99.90;;;;;;1886307;76;21070;-70
2021/05/16 06:40:06;;;;;;;1.02;0.40;;;12.80;99.90;;;;;;1886274;76;21103;-71
2021/05/16 06:42:32;;;;;;;0.40;0.30;;;13.10;99.90;;;;;;1886413;76;21144;-70
2021/05/16 06:44:58;;;;;;;0.30;0.30;;;13.00;99.90;;;;;;1886389;76;21066;-73
2021/05/16 06:47:24;;;;;;;0.93;0.37;;;12.90;99.90;;;;;;1886389;76;21078;-74
2021/05/16 06:49:53;;;;;;;1.10;0.40;;;12.80;99.90;;;;;;1886464;76;21074;-74
2021/05/16 06:52:18;;;;;;;0.80;0.57;;;12.90;99.90;;;;;;1886269;73;21088;-74
2021/05/16 06:54:44;;;;;;;1.87;0.35;;;12.90;99.90;;;;;;1886329;76;21116;-75
2021/05/16 06:57:10;;;;;;;1.05;0.55;;;13.40;99.90;;;;;;1886364;76;21078;-75
2021/05/16 06:59:36;;;;;;;0.53;0.40;;;13.90;99.90;;;;;;1886387;76;21140;-75
2021/05/16 07:02:03;;;;;;;2.17;0.40;;;13.90;99.90;;;;;;1879586;76;21091;-75
2021/05/16 07:04:29;;;;;;;1.65;0.30;;;13.90;99.90;;;;;;1877617;76;21153;-74
2021/05/16 07:06:55;;;;;;;0.45;0.20;;;14.10;99.90;;;;;;1877736;76;21087;-75
2021/05/16 07:09:21;;;;;;;0.88;0.20;;;14.40;99.90;;;;;;1877748;76;21075;-74
2021/05/16 07:11:47;;;;;;;0.53;0.30;;;14.80;99.90;;;;;;1877726;76;21051;-74
2021/05/16 07:14:13;;;;;;;0.53;0.30;;;14.80;99.90;;;;;;1877844;76;21149;-74
2021/05/16 07:16:39;;;;;;;0.37;0.28;;;15.10;99.90;;;;;;1877831;76;21082;-74
2021/05/16 07:19:05;;;;;;;3.00;0.23;;;15.10;99.90;;;;;;1877873;76;21078;-73
2021/05/16 07:21:32;;;;;;;0.57;0.37;;;14.50;99.90;;;;;;1877821;76;21126;-73
2021/05/16 07:23:58;;;;;;;0.10;0.10;;;14.10;99.90;;;;;;1877742;76;21181;-74
2021/05/16 07:26:24;;;;;;;1.85;0.10;;;13.90;99.90;;;;;;1877686;76;21079;-74
2021/05/16 07:28:50;;;;;;;0.78;0.45;;;13.90;99.90;;;;;;1877705;76;21022;-73
2021/05/16 07:31:16;;;;;;;4.85;0.95;;;13.70;99.90;;;;;;1877877;76;21463;-74
2021/05/16 07:33:42;;;;;;;1.27;0.20;;;13.60;99.90;;;;;;1877626;76;21148;-74
2021/05/16 07:36:09;;;;;;;0.70;0.30;;;13.70;99.90;;;;;;1877803;76;21087;-74
2021/05/16 07:38:35;;;;;;;0.65;0.33;;;13.80;99.90;;;;;;1877964;76;21078;-73
2021/05/16 07:41:01;;;;;;;2.27;0.45;;;13.60;99.90;;;;;;1877872;76;21079;-74
2021/05/16 07:43:27;;;;;;;0.45;0.40;;;13.60;99.90;;;;;;1877573;76;21478;-73
2021/05/16 07:45:53;;;;;;;1.40;0.37;;;13.60;99.90;;;;;;1877751;76;21546;-75
2021/05/16 07:48:28;;;;;;;0.85;0.50;;;13.70;99.90;;;;;;1877575;76;21525;-74
2021/05/16 07:50:47;;;;;;;1.12;0.37;;;13.80;99.90;;;;;;1876434;74;21111;-74
2021/05/16 07:53:13;;;;;;;4.47;0.37;;;13.90;99.90;;;;;;1877600;76;21079;-74
2021/05/16 07:55:41;;;;;;;0.28;0.20;;;14.00;99.90;;;;;;1877833;76;21073;-73
2021/05/16 07:58:07;;;;;;;1.30;0.40;;;14.30;99.90;;;;;;1877609;76;21078;-73
2021/05/16 08:00:33;;;;;;;1.15;0.40;;;14.30;99.90;;;;;;1877771;76;21106;-76
2021/05/16 08:02:59;;;;;;;0.40;0.30;;;14.40;99.90;;;;;;1877703;76;21157;-74
2021/05/16 08:05:26;;;;;;;1.75;0.30;;;14.70;99.90;;;;;;1877668;76;21175;-76
2021/05/16 08:07:52;;;;;;;1.12;0.47;;;15.00;99.90;;;;;;1877694;76;21159;-76
2021/05/16 08:10:21;;;;;;;0.40;0.40;;;15.60;99.90;;;;;;1877854;76;21192;-74
2021/05/16 08:12:46;;;;;;;0.30;0.30;;;15.70;99.90;;;;;;1877387;75;21107;-75
2021/05/16 08:15:12;;;;;;;3.10;0.30;;;15.80;99.90;;;;;;1877838;76;21118;-74
2021/05/16 08:17:38;;;;;;;0.13;0.10;;;15.40;99.90;;;;;;1873825;76;21180;-73
2021/05/16 08:20:04;;;;;;;1.42;0.50;;;15.20;99.90;;;;;;1877786;76;21070;-72
2021/05/16 08:22:30;;;;;;;1.05;0.50;;;15.00;99.90;;;;;;1877772;76;21100;-74
2021/05/16 08:24:56;;;;;;;3.35;0.37;;;15.00;99.90;;;;;;1877592;76;21156;-74
2021/05/16 08:27:22;;;;;;;0.45;0.20;;;15.10;99.90;;;;;;1877756;76;21095;-74
2021/05/16 08:29:48;;;;;;;0.70;0.50;;;15.00;99.90;;;;;;1877833;76;21079;-74
2021/05/16 08:32:15;;;;;;;4.53;0.50;;;15.10;99.90;;;;;;1877614;76;21051;-71
2021/05/16 08:34:41;;;;;;;2.00;0.60;;;14.90;99.90;;;;;;1877628;76;21148;-71
2021/05/16 08:37:09;;;;;;;1.00;0.50;;;15.00;99.90;;;;;;1877697;76;21090;-72
2021/05/16 08:39:35;;;;;;;0.55;0.40;;;15.20;99.90;;;;;;1877651;75;21177;-73
2021/05/16 08:42:01;;;;;;;3.27;0.80;;;15.60;99.90;;;;;;1877696;76;21511;-75
2021/05/16 08:44:27;;;;;;;2.52;0.50;;;16.20;99.90;;;;;;1877559;76;21477;-73
2021/05/16 08:46:53;;;;;;;2.27;0.50;;;16.50;99.90;;;;;;1877758;76;21588;-73
2021/05/16 08:49:20;;;;;;;1.98;0.30;;;16.30;99.90;;;;;;1877932;76;21494;-72
2021/05/16 08:51:50;;;;;;;1.37;0.50;;;15.90;99.90;;;;;;1877639;76;21587;-74
2021/05/16 08:54:13;;;;;;;1.90;0.50;;;15.80;99.90;;;;;;1877247;75;21173;-74
2021/05/16 08:56:40;;;;;;;4.95;0.50;;;16.30;99.90;;;;;;1877540;76;21078;-76
2021/05/16 08:59:06;;;;;;;2.05;0.60;;;16.50;99.90;;;;;;1877828;76;21140;-77
2021/05/16 09:01:38;;;;;;;4.65;0.80;;;16.80;99.90;;;;;;1877687;76;21102;-76
2021/05/16 09:04:00;;;;;;;1.40;0.80;;;17.10;99.90;;;;;;1876890;76;21185;-78
2021/05/16 09:06:26;;;;;;;1.20;0.23;;;17.50;99.90;;;;;;1877728;76;21082;-78
2021/05/16 09:08:52;;;;;;;3.50;0.50;;;17.80;99.90;;;;;;1877863;76;21219;-74
2021/05/16 09:11:18;;;;;;;6.58;0.55;;;17.70;99.90;;;;;;1878366;76;21129;-73
2021/05/16 09:13:50;;;;;;;5.15;0.70;;;17.50;99.90;;;;;;1877897;76;21083;-78
2021/05/16 09:16:12;;;;;;;3.35;0.60;;;17.90;99.90;;;;;;1876803;76;21162;-74
2021/05/16 09:18:38;;;;;;;1.77;0.53;;;17.00;99.90;;;;;;1877708;76;21152;-74
2021/05/16 09:21:04;;;;;;;3.30;0.65;;;16.70;99.90;;;;;;1877693;76;21144;-74
2021/05/16 09:23:30;;;;;;;3.08;0.70;;;16.90;99.90;;;;;;1877666;76;21164;-74
2021/05/16 09:25:56;;;;;;;4.40;0.50;;;17.30;99.90;;;;;;1877774;76;21082;-74
2021/05/16 09:28:23;;;;;;;0.98;0.53;;;17.60;99.90;;;;;;1877681;76;21091;-75
2021/05/16 09:30:49;;;;;;;2.12;0.60;;;17.40;99.90;;;;;;1877781;76;21075;-76
2021/05/16 09:33:16;;;;;;;3.45;0.78;;;17.10;99.90;;;;;;1877882;76;21152;-76
2021/05/16 09:35:42;;;;;;;1.37;0.50;;;16.90;99.90;;;;;;1878890;76;21188;-75
2021/05/16 09:38:08;;;;;;;0.62;0.40;;;16.50;99.90;;;;;;1877853;76;21083;-74
2021/05/16 09:40:37;;;;;;;3.22;0.60;;;16.30;99.90;;;;;;1877726;76;21073;-73
2021/05/16 09:43:02;;;;;;;1.42;0.50;;;16.30;99.90;;;;;;1877366;75;21150;-72
2021/05/16 09:45:28;;;;;;;2.70;0.70;;;16.30;99.90;;;;;;1877624;76;21079;-73
2021/05/16 09:47:55;;;;;;;2.87;0.62;;;16.60;99.90;;;;;;1877685;76;21075;-72
2021/05/16 09:50:21;;;;;;;1.35;0.42;;;16.80;99.90;;;;;;1877644;76;21185;-71
2021/05/16 09:52:47;;;;;;;4.83;0.50;;;17.30;99.90;;;;;;1877117;76;21051;-71
2021/05/16 09:55:13;;;;;;;3.00;0.72;;;17.30;99.90;;;;;;1877310;76;21164;-71
2021/05/16 09:57:39;;;;;;;0.55;0.42;;;17.00;99.90;;;;;;1877181;76;21078;-71
2021/05/16 10:00:05;;;;;;;3.62;0.60;;;17.10;99.90;;;;;;1877242;76;21218;-71
2021/05/16 10:02:31;;;;;;;1.75;0.47;;;17.60;99.90;;;;;;1877132;76;21161;-72
2021/05/16 10:04:59;;;;;;;3.25;0.82;;;17.90;99.90;;;;;;1877162;76;21050;-71
2021/05/16 10:07:25;;;;;;;1.00;0.55;;;17.70;99.90;;;;;;1877328;76;21255;-71
2021/05/16 10:09:51;;;;;;;2.45;0.70;;;18.40;99.90;;;;;;1877574;76;21168;-70
2021/05/16 10:12:18;;;;;;;3.92;0.80;;;18.50;99.90;;;;;;1881968;76;21458;-71
2021/05/16 10:14:46;;;;;;;2.05;0.53;;;18.30;99.90;;;;;;1886157;76;21082;-71
2021/05/16 10:17:12;;;;;;;2.70;0.53;;;18.10;99.90;;;;;;1886277;76;21102;-71
2021/05/16 10:19:39;;;;;;;2.70;0.53;;;17.60;99.90;;;;;;1886269;76;21077;-71
2021/05/16 10:22:05;;;;;;;4.25;0.60;;;17.60;99.90;;;;;;1886266;76;21066;-71
2021/05/16 10:24:31;;;;;;;1.30;0.60;;;17.70;99.90;;;;;;1886247;76;21087;-70
2021/05/16 10:26:57;;;;;;;0.60;0.37;;;18.30;99.90;;;;;;1886131;76;21047;-71
2021/05/16 10:29:24;;;;;;;1.35;0.53;;;18.70;99.90;;;;;;1886146;76;21193;-71
2021/05/16 10:31:50;;;;;;;7.15;0.65;;;18.90;99.90;;;;;;1886182;76;21152;-71
2021/05/16 10:34:16;;;;;;;8.40;0.50;;;18.60;99.90;;;;;;1886162;76;21140;-71
2021/05/16 10:36:42;;;;;;;1.45;0.40;;;18.40;99.90;;;;;;1886181;76;21090;-71
2021/05/16 10:39:08;;;;;;;2.17;0.40;;;18.00;99.90;;;;;;1886176;76;21078;-71
2021/05/16 10:41:34;;;;;;;3.72;0.30;;;18.00;99.90;;;;;;1886218;76;21070;-71
2021/05/16 10:44:00;;;;;;;0.50;0.42;;;17.70;99.90;;;;;;1886332;76;21082;-71
2021/05/16 10:46:27;;;;;;;1.35;0.50;;;18.00;99.90;;;;;;1886150;76;21051;-71
2021/05/16 10:48:53;;;;;;;4.47;0.88;;;18.60;99.90;;;;;;1886169;76;21183;-71
2021/05/16 10:51:19;;;;;;;2.80;0.50;;;18.60;99.90;;;;;;1886294;76;21074;-71
2021/05/16 10:53:45;;;;;;;2.17;0.72;;;18.60;99.90;;;;;;1886351;76;21156;-71
2021/05/16 10:56:11;;;;;;;1.85;0.65;;;18.40;99.90;;;;;;1886365;76;21052;-71
2021/05/16 10:58:37;;;;;;;2.00;0.45;;;18.40;99.90;;;;;;1886166;76;21156;-72
2021/05/16 11:01:03;;;;;;;4.20;0.70;;;18.70;99.90;;;;;;1886262;76;21078;-73
2021/05/16 11:03:29;;;;;;;1.80;0.82;;;18.90;99.90;;;;;;1886124;76;21078;-72
2021/05/16 11:05:57;;;;;;;3.27;0.40;;;19.00;99.90;;;;;;1885815;76;21062;-72
2021/05/16 11:08:25;;;;;;;1.95;0.70;;;18.80;99.90;;;;;;1885803;76;21079;-71
2021/05/16 11:10:51;;;;;;;2.02;0.47;;;18.60;99.90;;;;;;1885804;76;21479;-72
2021/05/16 11:13:18;;;;;;;1.55;0.70;;;18.60;99.90;;;;;;1886041;76;21088;-72
2021/05/16 11:15:44;;;;;;;2.15;0.62;;;18.70;99.90;;;;;;1879905;76;21095;-72
2021/05/16 11:18:10;;;;;;;1.90;0.40;;;18.70;99.60;;;;;;1877396;76;21059;-73
2021/05/16 11:20:39;;;;;;;3.45;0.70;;;18.70;99.90;;;;;;1877519;76;21082;-73
2021/05/16 11:23:06;;;;;;;1.50;0.50;;;18.70;99.90;;;;;;1877396;76;21055;-74
2021/05/16 11:25:32;;;;;;;1.80;0.60;;;18.90;99.90;;;;;;1877291;76;21099;-73
2021/05/16 11:27:58;;;;;;;2.40;0.60;;;18.80;99.90;;;;;;1877324;76;21079;-73
2021/05/16 11:30:24;;;;;;;2.00;0.55;;;19.00;99.90;;;;;;1877237;76;21086;-72
2021/05/16 11:32:50;;;;;;;1.82;0.40;;;19.40;99.90;;;;;;1877383;76;21048;-74
2021/05/16 11:35:16;;;;;;;0.60;0.30;;;19.00;99.90;;;;;;1877271;76;21087;-71
2021/05/16 11:37:45;;;;;;;3.72;0.45;;;19.40;99.90;;;;;;1877329;76;21118;-71
2021/05/16 11:40:10;;;;;;;2.77;0.62;;;19.80;99.90;;;;;;1887961;74;21526;-71
2021/05/16 11:42:39;;;;;;;0.62;0.30;;;20.20;99.00;;;;;;1885800;76;21528;-71
2021/05/16 11:45:04;;;;;;;1.15;0.40;;;19.90;99.30;;;;;;1885762;76;21091;-71
2021/05/16 11:47:30;;;;;;;2.67;0.93;;;19.40;97.20;;;;;;1885749;76;21070;-71
2021/05/16 11:49:57;;;;;;;0.75;0.42;;;19.80;98.60;;;;;;1886020;76;21070;-71
2021/05/16 11:52:23;;;;;;;1.30;0.47;;;19.50;97.80;;;;;;1885869;76;21180;-70
2021/05/16 11:54:49;;;;;;;4.12;1.32;;;19.00;99.80;;;;;;1885974;76;21074;-71
2021/05/16 11:57:18;;;;;;;1.02;0.40;;;19.20;99.90;;;;;;1887079;75;21138;-79
2021/05/16 11:59:44;;;;;;;2.20;0.55;;;19.80;99.80;;;;;;1889489;73;21104;-73
2021/05/16 12:02:10;;;;;;;2.05;0.50;;;20.10;98.40;;;;;;1888874;75;21067;-72
2021/05/16 12:04:36;;;;;;;1.50;0.28;;;19.90;97.80;;;;;;1889568;76;21158;-74
2021/05/16 12:07:03;;;;;;;1.37;0.47;;;20.30;97.00;;;;;;1887785;76;21082;-75
2021/05/16 12:09:29;;;;;;;1.35;0.50;;;20.20;96.70;;;;;;1885913;76;21074;-73
2021/05/16 12:11:55;;;;;;;2.67;0.57;;;20.10;97.30;;;;;;1885920;76;21148;-73
2021/05/16 12:14:21;;;;;;;2.27;0.50;;;20.00;96.10;;;;;;1885977;76;21153;-73
2021/05/16 12:16:47;;;;;;;1.20;0.55;;;19.90;95.90;;;;;;1885827;76;21455;-72
2021/05/16 12:19:14;;;;;;;3.83;0.42;;;20.20;95.80;;;;;;1885823;76;21482;-72
2021/05/16 12:21:40;;;;;;;1.25;0.50;;;20.40;94.70;;;;;;1885881;76;21070;-72
2021/05/16 12:24:06;;;;;;;2.75;0.60;;;20.80;95.30;;;;;;1885940;76;21143;-73
2021/05/16 12:26:32;;;;;;;0.90;0.42;;;21.00;93.40;;;;;;1885817;76;21106;-74
2021/05/16 12:28:58;;;;;;;2.87;0.68;;;21.30;93.20;;;;;;1885854;76;21164;-73
2021/05/16 12:31:24;;;;;;;0.65;0.30;;;22.10;91.40;;;;;;1886017;76;21072;-73
2021/05/16 12:33:50;;;;;;;1.60;0.47;;;21.60;90.60;;;;;;1885902;76;21074;-73
2021/05/16 12:36:16;;;;;;;2.45;1.15;;;21.10;91.20;;;;;;1885872;76;21047;-74
2021/05/16 12:38:43;;;;;;;1.50;0.47;;;21.10;92.30;;;;;;1885879;76;21117;-74
2021/05/16 12:41:09;;;;;;;1.67;0.40;;;20.80;91.00;;;;;;1885893;76;21066;-74